Time;durP1;ratioP1;P1;durP2;ratioP2;P2;SDS_P1;SDS_P2;PMS_P1;PMS_P2;Temp;Humidity;BMP_temperature;BMP_pressure;BME280_temperature;BME280_humidity;BME280_pressure;Samples;Min_cycle;Max_cycle;Signal;HPM_P1;HPM_P2
2023/05/28 00:02:09;;;;;;;22.08;10.32;;;14.50;95.50;;;;;;5030366;28;20124;-71
2023/05/28 00:04:35;;;;;;;18.00;6.63;;;14.50;95.50;;;;;;5030295;28;20510;-71
2023/05/28 00:07:00;;;;;;;8.90;4.47;;;14.50;95.60;;;;;;5031079;28;20057;-72
2023/05/28 00:09:26;;;;;;;10.18;4.78;;;14.50;95.50;;;;;;5031140;28;20021;-70
2023/05/28 00:11:52;;;;;;;12.80;4.90;;;14.50;95.60;;;;;;5031537;28;20091;-71
2023/05/28 00:14:18;;;;;;;10.75;4.90;;;14.30;95.70;;;;;;5031402;28;20036;-71
2023/05/28 00:16:45;;;;;;;15.10;4.70;;;14.40;95.90;;;;;;5031327;28;20475;-72
2023/05/28 00:19:11;;;;;;;13.50;4.78;;;14.30;95.90;;;;;;5030111;28;20451;-72
2023/05/28 00:21:37;;;;;;;13.13;5.05;;;14.30;96.00;;;;;;5030926;28;20025;-72
2023/05/28 00:24:03;;;;;;;14.52;4.82;;;14.20;96.10;;;;;;5030599;28;20040;-71
2023/05/28 00:26:29;;;;;;;13.48;4.28;;;14.20;96.20;;;;;;5030804;28;20049;-70
2023/05/28 00:28:55;;;;;;;14.70;5.32;;;14.20;96.40;;;;;;5030468;28;20038;-71
2023/05/28 00:31:21;;;;;;;11.68;4.15;;;14.10;96.50;;;;;;5030743;28;20048;-71
2023/05/28 00:33:47;;;;;;;17.27;5.63;;;14.10;96.60;;;;;;5030896;28;20087;-71
2023/05/28 00:36:13;;;;;;;11.15;4.80;;;14.00;96.60;;;;;;5030140;28;20053;-71
2023/05/28 00:38:38;;;;;;;12.27;4.35;;;14.10;96.70;;;;;;5030655;28;20510;-72
2023/05/28 00:41:04;;;;;;;12.73;5.15;;;14.20;96.50;;;;;;5030833;28;20047;-71
2023/05/28 00:43:31;;;;;;;14.65;5.10;;;14.10;96.50;;;;;;5030829;28;20056;-71
2023/05/28 00:46:00;;;;;;;14.05;4.75;;;14.00;96.80;;;;;;5030679;28;20029;-71
2023/05/28 00:48:26;;;;;;;14.55;5.10;;;14.20;96.70;;;;;;5030576;28;20041;-71
2023/05/28 00:50:53;;;;;;;12.57;4.90;;;14.20;96.70;;;;;;5031079;28;20060;-72
2023/05/28 00:53:19;;;;;;;13.20;5.35;;;14.10;96.80;;;;;;5030673;28;20058;-72
2023/05/28 00:55:45;;;;;;;18.50;6.03;;;14.00;97.20;;;;;;5030522;28;20034;-71
2023/05/28 00:58:11;;;;;;;14.43;5.07;;;14.00;97.00;;;;;;5030821;28;20344;-70
2023/05/28 01:00:37;;;;;;;11.45;4.68;;;14.00;97.00;;;;;;5030383;28;20451;-71
2023/05/28 01:03:04;;;;;;;12.90;5.28;;;13.90;97.10;;;;;;5029716;28;20025;-72
2023/05/28 01:05:34;;;;;;;16.88;5.70;;;13.80;97.20;;;;;;5030543;28;20045;-73
2023/05/28 01:08:03;;;;;;;13.95;5.40;;;13.80;97.20;;;;;;5029275;28;20557;-72
2023/05/28 01:10:30;;;;;;;13.60;5.40;;;13.70;97.20;;;;;;5030396;28;20099;-73
2023/05/28 01:12:57;;;;;;;15.97;5.23;;;13.70;97.30;;;;;;5030471;28;20083;-72
2023/05/28 01:15:23;;;;;;;12.77;5.65;;;13.60;97.40;;;;;;5030314;28;20251;-71
2023/05/28 01:17:55;;;;;;;11.13;5.15;;;13.50;97.50;;;;;;5030656;28;20029;-73
2023/05/28 01:20:21;;;;;;;14.60;5.60;;;13.60;97.60;;;;;;5030665;28;20116;-73
2023/05/28 01:22:55;;;;;;;14.40;5.30;;;13.50;97.70;;;;;;5030478;28;20120;-72
2023/05/28 01:25:23;;;;;;;18.95;8.52;;;13.50;97.80;;;;;;5030167;28;20033;-73
2023/05/28 01:27:48;;;;;;;14.35;5.70;;;13.50;97.70;;;;;;5030011;28;20053;-72
2023/05/28 01:30:14;;;;;;;16.63;5.28;;;13.50;97.80;;;;;;5030593;28;20421;-72
2023/05/28 01:32:40;;;;;;;12.32;5.10;;;13.50;97.60;;;;;;5030203;28;20526;-73
2023/05/28 01:35:08;;;;;;;11.30;5.25;;;13.50;97.70;;;;;;5032329;28;20388;-72
2023/05/28 01:37:37;;;;;;;13.27;4.72;;;13.50;97.80;;;;;;5052890;28;20044;-72
2023/05/28 01:40:03;;;;;;;15.52;5.05;;;13.40;97.90;;;;;;5054073;28;20025;-72
2023/05/28 01:42:31;;;;;;;13.75;4.70;;;13.50;97.90;;;;;;5053862;28;20044;-72
2023/05/28 01:44:57;;;;;;;13.55;4.93;;;13.40;97.90;;;;;;5054427;28;20028;-72
2023/05/28 01:47:24;;;;;;;11.00;4.82;;;13.30;98.10;;;;;;5052621;28;20040;-73
2023/05/28 01:49:50;;;;;;;9.55;5.25;;;13.30;98.20;;;;;;5053590;28;20485;-72
2023/05/28 01:52:16;;;;;;;14.90;4.55;;;13.30;98.10;;;;;;5052732;28;20119;-72
2023/05/28 01:54:41;;;;;;;14.55;5.28;;;13.20;97.90;;;;;;5053558;28;20111;-72
2023/05/28 01:57:07;;;;;;;13.73;5.22;;;13.20;98.20;;;;;;5053044;28;20498;-72
2023/05/28 01:59:33;;;;;;;12.32;5.13;;;13.10;98.50;;;;;;5053871;28;20033;-72
2023/05/28 02:01:59;;;;;;;12.60;5.03;;;13.10;98.50;;;;;;5053570;28;20037;-72
2023/05/28 02:04:25;;;;;;;21.27;5.28;;;13.10;98.30;;;;;;5053381;28;20044;-73
2023/05/28 02:06:51;;;;;;;13.90;5.35;;;13.20;98.20;;;;;;5053370;28;20033;-72
2023/05/28 02:09:16;;;;;;;15.88;5.03;;;13.20;98.20;;;;;;5053799;28;20482;-72
2023/05/28 02:11:42;;;;;;;14.52;4.78;;;13.20;98.20;;;;;;5053271;28;20025;-72
2023/05/28 02:14:13;;;;;;;11.60;5.07;;;13.20;98.20;;;;;;5053346;28;20552;-72
2023/05/28 02:17:06;;;;;;;11.52;5.10;;;13.20;98.20;;;;;;5053314;28;20123;-73
2023/05/28 02:19:32;;;;;;;10.60;4.63;;;13.20;98.00;;;;;;5050740;28;20029;-73
2023/05/28 02:21:58;;;;;;;13.52;5.30;;;13.20;98.10;;;;;;5053166;28;20394;-73
2023/05/28 02:24:23;;;;;;;10.48;4.30;;;13.20;98.00;;;;;;5053092;28;20091;-72
2023/05/28 02:26:50;;;;;;;11.93;5.45;;;13.20;98.00;;;;;;5053539;28;20078;-72
2023/05/28 02:29:16;;;;;;;11.05;4.45;;;13.20;98.00;;;;;;5053135;28;20064;-72
2023/05/28 02:31:42;;;;;;;13.68;4.53;;;13.20;98.00;;;;;;5052869;28;20426;-72
2023/05/28 02:34:07;;;;;;;11.15;5.57;;;13.20;98.00;;;;;;5052913;28;20037;-72
2023/05/28 02:36:33;;;;;;;9.85;4.93;;;13.20;97.90;;;;;;5052881;28;20021;-72
2023/05/28 02:38:59;;;;;;;13.02;5.07;;;13.10;98.10;;;;;;5053182;28;20112;-72
2023/05/28 02:41:26;;;;;;;14.65;5.38;;;13.10;98.20;;;;;;5052894;28;20037;-73
2023/05/28 02:43:51;;;;;;;12.93;5.40;;;13.00;98.30;;;;;;5052865;28;20033;-72
2023/05/28 02:46:17;;;;;;;11.02;5.40;;;12.90;98.50;;;;;;5051984;28;20029;-72
2023/05/28 02:48:44;;;;;;;12.05;5.40;;;12.90;98.60;;;;;;5052456;28;20439;-72
2023/05/28 02:51:11;;;;;;;8.48;4.70;;;12.90;98.80;;;;;;5053262;28;20051;-72
2023/05/28 02:53:37;;;;;;;13.25;4.90;;;12.80;98.90;;;;;;5053086;28;20095;-72
2023/05/28 02:56:03;;;;;;;12.65;4.95;;;12.90;98.70;;;;;;5052625;28;20037;-72
2023/05/28 02:58:30;;;;;;;14.95;5.60;;;12.80;98.90;;;;;;5052420;28;20040;-73
2023/05/28 03:00:56;;;;;;;11.52;5.55;;;12.80;98.80;;;;;;5051266;28;20482;-72
2023/05/28 03:03:21;;;;;;;10.30;4.85;;;12.90;98.70;;;;;;5052664;28;20021;-73
2023/05/28 03:05:50;;;;;;;14.27;5.43;;;12.80;98.80;;;;;;5052699;28;20021;-73
2023/05/28 03:08:16;;;;;;;12.85;5.35;;;12.80;98.80;;;;;;5052050;28;20119;-73
2023/05/28 03:10:42;;;;;;;12.30;5.05;;;12.70;98.90;;;;;;5052281;28;20025;-73
2023/05/28 03:13:08;;;;;;;10.32;5.20;;;12.60;99.00;;;;;;5052278;28;20063;-73
2023/05/28 03:15:34;;;;;;;10.73;5.00;;;12.60;99.20;;;;;;5052294;28;20068;-74
2023/05/28 03:17:59;;;;;;;12.00;5.32;;;12.60;99.20;;;;;;5052587;28;20068;-72
2023/05/28 03:20:25;;;;;;;16.60;5.18;;;12.60;99.30;;;;;;5052160;28;20029;-72
2023/05/28 03:22:56;;;;;;;13.15;5.25;;;12.50;99.30;;;;;;5051994;28;20044;-73
2023/05/28 03:25:22;;;;;;;11.90;5.10;;;12.50;99.30;;;;;;5051852;28;20044;-72
2023/05/28 03:27:47;;;;;;;12.60;5.47;;;12.50;99.30;;;;;;5051639;28;20033;-73
2023/05/28 03:30:14;;;;;;;14.60;5.78;;;12.50;99.50;;;;;;5052362;28;20473;-72
2023/05/28 03:32:40;;;;;;;10.82;5.40;;;12.40;99.50;;;;;;5051636;28;20114;-72
2023/05/28 03:35:07;;;;;;;11.82;5.03;;;12.40;99.50;;;;;;5051932;28;20109;-72
2023/05/28 03:37:33;;;;;;;13.77;4.97;;;12.40;99.50;;;;;;5052215;28;20033;-72
2023/05/28 03:39:59;;;;;;;11.18;5.72;;;12.40;99.50;;;;;;5051693;28;20037;-72
2023/05/28 03:42:25;;;;;;;13.38;5.20;;;12.40;99.80;;;;;;5051654;28;20082;-72
2023/05/28 03:44:51;;;;;;;11.50;5.35;;;12.50;99.50;;;;;;5050915;28;20057;-73
2023/05/28 03:47:16;;;;;;;10.45;5.30;;;12.40;99.40;;;;;;5051454;28;20116;-73
2023/05/28 03:49:42;;;;;;;12.32;5.93;;;12.40;99.50;;;;;;5050276;28;20029;-71
2023/05/28 03:52:08;;;;;;;12.27;5.65;;;12.50;99.40;;;;;;5051553;28;20032;-72
2023/05/28 03:54:34;;;;;;;11.63;5.10;;;12.50;99.40;;;;;;5051398;28;20025;-73
2023/05/28 03:57:00;;;;;;;11.98;4.93;;;12.50;99.30;;;;;;5051898;28;20466;-73
2023/05/28 03:59:25;;;;;;;14.02;5.40;;;12.30;99.40;;;;;;5051365;28;20033;-73
2023/05/28 04:01:51;;;;;;;11.43;5.03;;;12.30;99.60;;;;;;5051422;28;20041;-72
2023/05/28 04:04:16;;;;;;;13.50;5.13;;;12.30;99.60;;;;;;5051541;28;20447;-72
2023/05/28 04:06:42;;;;;;;13.80;6.43;;;12.40;99.70;;;;;;5050198;28;20029;-72
2023/05/28 04:09:08;;;;;;;11.38;5.13;;;12.40;99.50;;;;;;5051965;28;20025;-71
2023/05/28 04:11:37;;;;;;;11.23;5.18;;;12.40;99.70;;;;;;5051198;28;20120;-73
2023/05/28 04:14:02;;;;;;;10.13;5.07;;;12.40;99.60;;;;;;5051459;28;20039;-72
2023/05/28 04:16:28;;;;;;;15.93;6.30;;;12.40;99.50;;;;;;5051297;28;20136;-73
2023/05/28 04:18:54;;;;;;;11.32;4.85;;;12.40;99.60;;;;;;5051046;28;20348;-73
2023/05/28 04:21:21;;;;;;;9.85;4.80;;;12.40;99.70;;;;;;5050736;28;20403;-73
2023/05/28 04:23:47;;;;;;;17.65;7.05;;;12.40;99.70;;;;;;5051135;28;20509;-73
2023/05/28 04:26:14;;;;;;;12.38;5.72;;;12.50;99.70;;;;;;5050017;28;20132;-72
2023/05/28 04:28:40;;;;;;;11.27;5.43;;;12.60;99.50;;;;;;5050584;28;20547;-71
2023/05/28 04:31:06;;;;;;;10.52;5.22;;;12.60;99.60;;;;;;5050937;28;20041;-73
2023/05/28 04:33:32;;;;;;;10.00;5.15;;;12.60;99.60;;;;;;5050597;28;20025;-73
2023/05/28 04:35:59;;;;;;;13.25;5.78;;;12.60;99.80;;;;;;5050107;28;20040;-74
2023/05/28 04:38:29;;;;;;;14.90;5.32;;;12.70;99.80;;;;;;5050676;28;20531;-73
2023/05/28 04:40:55;;;;;;;15.38;5.75;;;12.70;99.90;;;;;;5050627;28;20090;-73
2023/05/28 04:43:22;;;;;;;12.55;4.50;;;12.70;99.90;;;;;;5050563;28;20043;-72
2023/05/28 04:45:48;;;;;;;16.52;5.80;;;12.70;99.90;;;;;;5049830;28;20548;-73
2023/05/28 04:48:13;;;;;;;10.45;4.93;;;12.70;99.90;;;;;;5050998;28;20107;-73
2023/05/28 04:50:40;;;;;;;11.93;5.72;;;12.80;99.70;;;;;;5050398;28;20073;-73
2023/05/28 04:53:06;;;;;;;10.82;5.07;;;12.90;99.70;;;;;;5051913;28;20025;-75
2023/05/28 04:55:31;;;;;;;15.63;5.82;;;13.00;99.50;;;;;;5052624;28;20488;-74
2023/05/28 04:57:57;;;;;;;11.82;5.25;;;13.10;99.30;;;;;;5051021;28;20509;-73
2023/05/28 05:00:24;;;;;;;10.48;4.60;;;13.20;99.30;;;;;;5051246;28;20029;-73
2023/05/28 05:02:50;;;;;;;10.65;5.15;;;13.20;99.60;;;;;;5051835;28;20021;-73
2023/05/28 05:05:16;;;;;;;13.80;5.47;;;13.20;99.70;;;;;;5050517;28;20485;-73
2023/05/28 05:07:42;;;;;;;11.45;5.10;;;13.20;99.90;;;;;;5051201;28;20033;-73
2023/05/28 05:10:09;;;;;;;11.63;5.43;;;13.40;99.90;;;;;;5052266;28;20025;-74
2023/05/28 05:12:36;;;;;;;11.50;5.15;;;13.30;99.90;;;;;;5055576;28;20463;-74
2023/05/28 05:15:02;;;;;;;13.35;5.72;;;13.40;99.80;;;;;;5055568;28;20021;-72
2023/05/28 05:17:28;;;;;;;12.38;4.80;;;13.50;99.80;;;;;;5055272;28;20025;-71
2023/05/28 05:19:55;;;;;;;13.65;4.80;;;13.50;99.80;;;;;;5054557;28;20029;-72
2023/05/28 05:22:20;;;;;;;18.58;6.20;;;13.60;99.80;;;;;;5054723;28;20498;-71
2023/05/28 05:24:48;;;;;;;11.88;5.32;;;13.70;99.70;;;;;;5053142;28;20036;-71
2023/05/28 05:27:14;;;;;;;10.50;5.00;;;13.70;99.70;;;;;;5054600;28;20040;-73
2023/05/28 05:29:39;;;;;;;17.40;5.45;;;13.90;99.70;;;;;;5054271;28;20044;-73
2023/05/28 05:32:06;;;;;;;13.07;6.40;;;14.00;99.70;;;;;;5054510;28;20475;-70
2023/05/28 05:34:32;;;;;;;10.82;5.40;;;14.10;99.30;;;;;;5055218;28;20098;-71
2023/05/28 05:37:01;;;;;;;13.90;4.65;;;14.20;99.10;;;;;;5054897;28;20033;-72
2023/05/28 05:39:27;;;;;;;10.95;5.35;;;14.30;99.30;;;;;;5054270;28;20029;-72
2023/05/28 05:41:53;;;;;;;13.85;5.32;;;14.50;99.20;;;;;;5055964;28;20028;-71
2023/05/28 05:44:18;;;;;;;10.55;4.85;;;14.70;98.90;;;;;;5055164;28;20363;-73
2023/05/28 05:46:44;;;;;;;12.35;5.05;;;14.80;98.90;;;;;;5055816;28;20463;-72
2023/05/28 05:49:10;;;;;;;13.38;5.40;;;14.80;98.80;;;;;;5054754;28;20204;-70
2023/05/28 05:51:36;;;;;;;12.13;5.25;;;15.00;98.60;;;;;;5053192;28;20335;-71
2023/05/28 05:54:05;;;;;;;10.57;4.30;;;15.20;98.70;;;;;;5054664;28;20279;-71
2023/05/28 05:56:31;;;;;;;13.80;4.55;;;15.40;98.60;;;;;;5054655;28;20446;-72
2023/05/28 05:58:58;;;;;;;11.98;5.07;;;15.40;98.40;;;;;;5055246;28;20033;-72
2023/05/28 06:01:25;;;;;;;10.27;4.35;;;15.50;98.10;;;;;;5054661;28;20037;-73
2023/05/28 06:03:50;;;;;;;14.13;5.03;;;15.60;97.90;;;;;;5053937;28;20025;-72
2023/05/28 06:06:16;;;;;;;8.18;4.53;;;15.80;97.90;;;;;;5054427;28;20021;-73
2023/05/28 06:08:42;;;;;;;16.13;4.68;;;16.00;97.70;;;;;;5054825;28;20268;-73
2023/05/28 06:11:09;;;;;;;13.23;4.90;;;16.20;97.50;;;;;;5054140;28;20036;-73
2023/05/28 06:13:36;;;;;;;15.07;4.83;;;16.30;97.10;;;;;;5053843;28;20025;-72
2023/05/28 06:16:03;;;;;;;14.52;4.72;;;16.40;97.10;;;;;;5053589;28;20261;-72
2023/05/28 06:18:30;;;;;;;15.87;5.00;;;16.50;97.00;;;;;;5054099;28;20051;-72
2023/05/28 06:20:55;;;;;;;15.10;4.95;;;16.60;96.60;;;;;;5053527;28;20353;-71
2023/05/28 06:23:21;;;;;;;10.85;5.07;;;16.70;96.30;;;;;;5049749;28;20430;-72
2023/05/28 06:25:47;;;;;;;13.68;5.00;;;16.80;96.30;;;;;;5050856;28;20577;-73
2023/05/28 06:28:13;;;;;;;13.40;4.20;;;16.90;96.20;;;;;;5054066;28;20140;-73
2023/05/28 06:30:42;;;;;;;13.38;4.13;;;17.00;96.20;;;;;;5054071;28;20076;-72
2023/05/28 06:33:09;;;;;;;19.23;5.53;;;17.10;96.10;;;;;;5054849;28;20102;-74
2023/05/28 06:35:35;;;;;;;10.55;4.65;;;17.20;95.60;;;;;;5054340;28;20043;-75
2023/05/28 06:38:01;;;;;;;11.95;4.97;;;17.30;94.90;;;;;;5052725;28;20055;-71
2023/05/28 06:40:26;;;;;;;14.23;5.05;;;17.40;94.80;;;;;;5053046;28;20423;-72
2023/05/28 06:42:52;;;;;;;11.43;4.68;;;17.40;94.70;;;;;;5053959;28;20396;-72
2023/05/28 06:45:18;;;;;;;7.95;4.22;;;17.50;94.70;;;;;;5053246;28;20036;-73
2023/05/28 06:47:45;;;;;;;12.75;4.88;;;17.50;94.70;;;;;;5054301;28;20357;-71
2023/05/28 06:50:11;;;;;;;16.27;4.83;;;17.60;94.70;;;;;;5053522;28;20404;-75
2023/05/28 06:52:37;;;;;;;11.68;4.88;;;17.60;94.30;;;;;;5053884;28;20421;-73
2023/05/28 06:55:05;;;;;;;12.02;4.68;;;17.60;94.10;;;;;;5053376;28;20457;-74
2023/05/28 06:57:32;;;;;;;16.77;4.43;;;17.70;94.40;;;;;;5053518;28;20025;-75
2023/05/28 06:59:58;;;;;;;15.80;5.20;;;17.80;94.40;;;;;;5053958;28;20502;-74
2023/05/28 07:02:23;;;;;;;13.85;4.93;;;18.00;93.40;;;;;;5053423;28;20055;-72
2023/05/28 07:04:49;;;;;;;12.57;4.80;;;18.20;93.10;;;;;;5053446;28;20126;-74
2023/05/28 07:07:15;;;;;;;14.18;4.93;;;18.40;93.50;;;;;;5053459;28;20033;-73
2023/05/28 07:09:41;;;;;;;12.50;5.22;;;18.50;92.50;;;;;;5053122;28;20025;-76
2023/05/28 07:12:06;;;;;;;12.70;4.25;;;18.50;91.80;;;;;;5053738;28;20032;-74
2023/05/28 07:14:32;;;;;;;15.00;5.35;;;18.60;91.50;;;;;;5053511;28;20472;-73
2023/05/28 07:16:58;;;;;;;16.67;4.97;;;18.80;91.50;;;;;;5053531;28;20445;-74
2023/05/28 07:19:24;;;;;;;11.30;4.10;;;18.90;91.70;;;;;;5052218;28;20382;-74
2023/05/28 07:21:49;;;;;;;12.18;4.22;;;19.10;91.70;;;;;;5053327;28;20118;-75
2023/05/28 07:24:15;;;;;;;10.52;3.92;;;19.20;90.90;;;;;;5053380;28;20067;-74
2023/05/28 07:26:41;;;;;;;17.30;4.38;;;19.20;90.70;;;;;;5053395;28;20029;-75
2023/05/28 07:29:06;;;;;;;11.63;4.93;;;19.30;90.30;;;;;;5053315;28;20029;-74
2023/05/28 07:31:32;;;;;;;12.10;4.28;;;19.40;90.40;;;;;;5053091;28;20044;-73
2023/05/28 07:33:58;;;;;;;11.60;3.60;;;19.50;90.50;;;;;;5052234;28;20464;-73
2023/05/28 07:36:23;;;;;;;12.52;4.30;;;19.50;89.50;;;;;;5051886;28;20033;-74
2023/05/28 07:38:50;;;;;;;8.43;3.28;;;19.70;89.00;;;;;;5053265;28;20455;-71
2023/05/28 07:41:16;;;;;;;13.50;3.85;;;19.80;87.00;;;;;;5052981;28;20090;-72
2023/05/28 07:43:41;;;;;;;12.70;3.97;;;19.80;88.00;;;;;;5052789;28;20033;-72
2023/05/28 07:46:07;;;;;;;9.25;3.72;;;19.90;86.40;;;;;;5053293;28;20029;-72
2023/05/28 07:48:32;;;;;;;8.75;3.67;;;20.10;86.00;;;;;;5052563;28;20044;-72
2023/05/28 07:50:59;;;;;;;9.35;3.50;;;20.30;84.60;;;;;;5053004;28;20033;-71
2023/05/28 07:53:25;;;;;;;9.00;3.83;;;20.50;84.40;;;;;;5052225;28;20084;-72
2023/05/28 07:55:51;;;;;;;9.60;3.45;;;20.70;82.70;;;;;;5052240;28;20463;-69
2023/05/28 07:58:17;;;;;;;8.27;3.83;;;20.70;79.00;;;;;;5052288;28;20434;-68
2023/05/28 08:00:44;;;;;;;10.07;3.75;;;20.90;80.20;;;;;;5052250;28;20476;-70
2023/05/28 08:03:11;;;;;;;9.55;2.97;;;20.90;77.80;;;;;;5051336;28;20033;-69
2023/05/28 08:05:37;;;;;;;13.40;3.60;;;21.10;78.50;;;;;;5050425;28;20097;-70
2023/05/28 08:08:02;;;;;;;10.10;3.38;;;21.40;80.90;;;;;;5051119;28;20029;-71
2023/05/28 08:10:28;;;;;;;9.55;4.35;;;21.90;84.10;;;;;;5051094;28;20043;-74
2023/05/28 08:12:54;;;;;;;13.18;4.53;;;22.50;83.30;;;;;;5051134;28;20072;-71
2023/05/28 08:15:20;;;;;;;8.55;3.97;;;23.00;79.90;;;;;;5050839;28;20032;-71
2023/05/28 08:17:45;;;;;;;12.43;4.15;;;23.30;75.30;;;;;;5051442;28;20060;-70
2023/05/28 08:20:11;;;;;;;12.48;4.05;;;23.60;74.40;;;;;;5051376;28;20451;-74
2023/05/28 08:22:38;;;;;;;12.43;4.00;;;23.90;76.70;;;;;;5051019;28;20130;-73
2023/05/28 08:25:04;;;;;;;7.50;3.38;;;24.20;79.40;;;;;;5050790;28;20459;-72
2023/05/28 08:27:31;;;;;;;8.90;3.30;;;24.80;76.00;;;;;;5050804;28;20041;-72
2023/05/28 08:29:57;;;;;;;9.90;3.07;;;25.30;68.10;;;;;;5051191;28;20036;-70
2023/05/28 08:32:22;;;;;;;6.90;2.53;;;25.90;66.10;;;;;;5050809;28;20037;-77
2023/05/28 08:34:48;;;;;;;9.15;2.85;;;27.00;66.90;;;;;;5050788;28;20515;-72
2023/05/28 08:37:15;;;;;;;10.10;3.20;;;28.30;61.80;;;;;;5051210;28;20051;-74
2023/05/28 08:39:40;;;;;;;8.77;3.13;;;29.10;57.30;;;;;;5050860;28;20037;-75
2023/05/28 08:42:07;;;;;;;7.25;3.03;;;29.80;54.80;;;;;;5051285;28;20038;-78
2023/05/28 08:44:33;;;;;;;8.02;3.30;;;30.10;55.00;;;;;;5048695;28;20056;-75
2023/05/28 08:47:00;;;;;;;6.72;3.10;;;30.80;52.80;;;;;;5051101;28;20091;-75
2023/05/28 08:49:40;;;;;;;3.88;2.05;;;31.50;52.40;;;;;;5050600;28;20025;-75
2023/05/28 08:52:08;;;;;;;12.93;3.40;;;32.40;49.70;;;;;;5050509;28;20094;-74
2023/05/28 08:54:34;;;;;;;7.07;2.25;;;32.60;46.50;;;;;;5050522;28;20033;-73
2023/05/28 08:57:00;;;;;;;7.50;3.03;;;32.10;46.10;;;;;;5051220;28;20078;-75
2023/05/28 08:59:27;;;;;;;7.60;3.28;;;32.10;45.30;;;;;;5050532;28;20029;-69
2023/05/28 09:01:53;;;;;;;10.68;2.60;;;32.70;48.80;;;;;;5049232;28;20421;-70
2023/05/28 09:04:21;;;;;;;3.72;2.22;;;32.70;45.10;;;;;;5050627;28;20037;-70
2023/05/28 09:06:51;;;;;;;6.47;2.30;;;31.90;41.70;;;;;;5050276;28;20033;-71
2023/05/28 09:09:17;;;;;;;5.85;2.22;;;32.70;44.50;;;;;;5050784;28;20028;-71
2023/05/28 09:11:43;;;;;;;7.55;2.47;;;32.90;42.30;;;;;;5050134;28;20033;-70
2023/05/28 09:14:13;;;;;;;4.07;2.40;;;31.70;41.80;;;;;;5050360;28;20034;-71
2023/05/28 09:16:42;;;;;;;6.85;2.78;;;31.90;43.20;;;;;;5050083;28;20100;-72
2023/05/28 09:19:08;;;;;;;10.57;2.95;;;32.60;45.70;;;;;;5050175;28;20371;-72
2023/05/28 09:21:36;;;;;;;7.30;3.08;;;33.00;43.50;;;;;;5050162;28;20108;-70
2023/05/28 09:24:03;;;;;;;7.82;2.75;;;32.50;40.50;;;;;;5049516;28;20033;-71
2023/05/28 09:26:30;;;;;;;6.47;2.85;;;31.40;43.70;;;;;;5050225;28;20031;-72
2023/05/28 09:28:57;;;;;;;5.00;2.80;;;31.80;42.70;;;;;;5050060;28;20037;-70
2023/05/28 09:31:33;;;;;;;7.15;2.70;;;31.20;41.00;;;;;;5050161;28;20098;-70
2023/05/28 09:34:03;;;;;;;7.18;3.05;;;30.50;41.60;;;;;;5050053;28;20458;-71
2023/05/28 09:36:30;;;;;;;14.27;3.78;;;30.10;44.40;;;;;;5050482;28;20048;-71
2023/05/28 09:38:56;;;;;;;4.57;2.28;;;29.50;45.70;;;;;;5049600;28;20029;-71
2023/05/28 09:41:25;;;;;;;5.07;2.72;;;28.60;43.60;;;;;;5050043;28;20041;-71
2023/05/28 09:43:59;;;;;;;5.38;2.60;;;28.50;43.60;;;;;;5050025;28;20271;-72
2023/05/28 09:46:30;;;;;;;8.18;2.65;;;29.20;45.80;;;;;;5049942;28;20520;-72
2023/05/28 09:48:56;;;;;;;7.47;2.97;;;29.20;45.80;;;;;;5050091;28;20321;-71
2023/05/28 09:51:26;;;;;;;5.97;3.35;;;29.30;45.10;;;;;;5049741;28;20097;-71
2023/05/28 09:53:57;;;;;;;4.50;2.58;;;28.90;45.00;;;;;;5050487;28;20021;-70
2023/05/28 09:56:31;;;;;;;4.78;2.40;;;28.80;46.10;;;;;;5050189;28;20025;-72
2023/05/28 09:58:58;;;;;;;3.85;2.35;;;28.80;46.30;;;;;;5053525;28;20033;-71
2023/05/28 10:01:30;;;;;;;5.72;2.25;;;28.30;44.40;;;;;;5053713;28;20278;-72
2023/05/28 10:04:08;;;;;;;7.75;2.78;;;27.90;45.50;;;;;;5053655;28;20033;-71
2023/05/28 10:06:35;;;;;;;7.47;3.47;;;27.70;45.50;;;;;;5053643;28;20020;-71
2023/05/28 10:09:02;;;;;;;5.17;2.50;;;27.60;45.50;;;;;;5053863;28;20025;-71
2023/05/28 10:11:39;;;;;;;6.63;2.60;;;27.70;46.80;;;;;;5053306;28;20278;-71
2023/05/28 10:14:06;;;;;;;5.28;2.63;;;27.60;46.40;;;;;;5053302;28;20048;-70
2023/05/28 10:16:32;;;;;;;6.32;2.67;;;27.50;47.20;;;;;;5053146;28;20040;-70
2023/05/28 10:18:58;;;;;;;5.55;2.90;;;27.20;46.60;;;;;;5053384;28;20349;-71
2023/05/28 10:21:24;;;;;;;9.18;2.83;;;27.20;47.80;;;;;;5053315;28;20029;-70
2023/05/28 10:23:51;;;;;;;10.00;3.30;;;27.00;47.80;;;;;;5053519;28;20025;-70
2023/05/28 10:26:18;;;;;;;4.32;2.25;;;27.00;47.10;;;;;;5053429;28;20183;-70
2023/05/28 10:28:45;;;;;;;4.22;2.60;;;27.00;47.80;;;;;;5051762;28;20048;-70
2023/05/28 10:31:10;;;;;;;5.28;2.33;;;27.20;48.60;;;;;;5053093;28;20137;-71
2023/05/28 10:33:43;;;;;;;9.00;2.63;;;26.90;46.70;;;;;;5052925;28;20411;-70
2023/05/28 10:36:16;;;;;;;7.10;2.15;;;27.00;47.00;;;;;;5053679;28;20384;-71
2023/05/28 10:38:46;;;;;;;11.13;2.78;;;26.70;46.90;;;;;;5052844;28;20036;-71
2023/05/28 10:41:21;;;;;;;7.45;2.78;;;26.80;47.40;;;;;;5051687;28;20025;-70
2023/05/28 10:43:52;;;;;;;9.13;2.90;;;26.80;47.70;;;;;;5052811;28;20064;-70
2023/05/28 10:46:25;;;;;;;5.40;2.20;;;26.80;48.60;;;;;;5052674;28;20025;-71
2023/05/28 10:49:14;;;;;;;6.95;2.60;;;26.70;48.80;;;;;;5051378;28;20110;-71
2023/05/28 10:51:51;;;;;;;6.78;2.50;;;26.40;49.00;;;;;;5052531;28;20044;-70
2023/05/28 10:54:29;;;;;;;5.57;2.50;;;26.40;50.00;;;;;;5053128;28;20050;-70
2023/05/28 10:57:18;;;;;;;10.27;2.70;;;26.30;50.10;;;;;;5052630;28;20055;-71
2023/05/28 10:59:48;;;;;;;5.10;2.35;;;26.10;49.70;;;;;;5052412;28;20071;-70
2023/05/28 11:02:25;;;;;;;4.38;2.38;;;26.00;51.30;;;;;;5051248;28;20534;-69
2023/05/28 11:04:56;;;;;;;7.30;2.67;;;26.10;49.20;;;;;;5052260;28;20094;-70
2023/05/28 11:07:27;;;;;;;9.73;3.17;;;26.00;49.60;;;;;;5051635;28;20048;-70
2023/05/28 11:09:55;;;;;;;5.65;2.60;;;26.00;50.70;;;;;;5052293;28;20033;-70
2023/05/28 11:12:25;;;;;;;6.22;2.40;;;26.00;50.70;;;;;;5052095;28;20386;-71
2023/05/28 11:14:51;;;;;;;6.05;2.80;;;25.90;48.80;;;;;;5052595;28;20038;-69
2023/05/28 11:17:17;;;;;;;5.20;2.33;;;25.70;50.30;;;;;;5052161;28;20040;-70
2023/05/28 11:19:51;;;;;;;5.28;2.25;;;25.60;50.90;;;;;;5051728;28;20021;-69
2023/05/28 11:22:18;;;;;;;11.40;2.47;;;25.50;50.30;;;;;;5051742;28;20095;-69
2023/05/28 11:24:55;;;;;;;6.32;2.60;;;25.40;50.50;;;;;;5051774;28;20437;-70
2023/05/28 11:27:25;;;;;;;6.80;2.25;;;25.60;51.20;;;;;;5050516;28;20028;-71
2023/05/28 11:29:56;;;;;;;10.45;2.80;;;25.50;51.00;;;;;;5052103;28;20049;-70
2023/05/28 11:32:22;;;;;;;8.77;2.90;;;25.50;51.50;;;;;;5051775;28;20477;-69
2023/05/28 11:34:49;;;;;;;5.60;2.35;;;25.60;52.10;;;;;;5051607;28;20037;-70
2023/05/28 11:37:15;;;;;;;13.23;3.10;;;25.20;50.00;;;;;;5051783;28;20033;-70
2023/05/28 11:39:49;;;;;;;7.78;2.28;;;25.20;50.30;;;;;;5051726;28;20025;-70
2023/05/28 11:42:16;;;;;;;6.72;2.80;;;25.30;50.70;;;;;;5052565;28;20404;-71
2023/05/28 11:44:45;;;;;;;8.27;2.83;;;25.70;51.60;;;;;;5051603;28;20029;-71
2023/05/28 11:47:12;;;;;;;5.30;2.50;;;25.90;51.10;;;;;;5051476;28;20108;-71
2023/05/28 11:49:38;;;;;;;16.30;4.22;;;26.00;50.40;;;;;;5050076;28;20040;-71
2023/05/28 11:52:03;;;;;;;8.45;3.38;;;25.80;50.00;;;;;;5051340;28;20037;-71
2023/05/28 11:54:29;;;;;;;7.43;3.60;;;25.80;50.30;;;;;;5051860;28;20455;-70
2023/05/28 11:56:55;;;;;;;8.52;3.63;;;25.90;51.80;;;;;;5051796;28;20062;-71
2023/05/28 11:59:26;;;;;;;6.32;2.92;;;26.00;51.10;;;;;;5051222;28;20116;-70
2023/05/28 12:01:52;;;;;;;12.80;5.03;;;26.00;52.10;;;;;;5051441;28;20087;-70
2023/05/28 12:04:24;;;;;;;9.02;3.08;;;25.90;51.90;;;;;;5050994;28;20028;-71
2023/05/28 12:06:54;;;;;;;6.07;2.78;;;26.00;51.00;;;;;;5049920;28;20374;-71
2023/05/28 12:09:20;;;;;;;10.75;2.60;;;26.00;50.30;;;;;;5051104;28;20035;-70
2023/05/28 12:12:11;;;;;;;10.82;2.90;;;26.00;50.80;;;;;;5051709;28;20021;-71
2023/05/28 12:14:37;;;;;;;7.88;2.47;;;25.90;50.80;;;;;;5049884;28;20144;-71
2023/05/28 12:17:10;;;;;;;7.05;2.35;;;26.00;50.60;;;;;;5050854;28;20112;-71
2023/05/28 12:19:36;;;;;;;5.60;2.70;;;26.00;50.50;;;;;;5049602;28;20029;-71
2023/05/28 12:22:04;;;;;;;10.50;2.65;;;25.90;50.20;;;;;;5050715;28;20033;-71
2023/05/28 12:24:30;;;;;;;6.93;3.08;;;25.80;50.40;;;;;;5050671;28;20031;-71
2023/05/28 12:26:57;;;;;;;5.20;2.75;;;25.80;50.90;;;;;;5051033;28;20033;-71
2023/05/28 12:29:23;;;;;;;8.05;2.78;;;25.70;50.30;;;;;;5049635;28;20029;-70
2023/05/28 12:31:57;;;;;;;5.75;2.85;;;25.70;50.60;;;;;;5050729;28;20049;-71
2023/05/28 12:34:23;;;;;;;6.72;2.60;;;25.80;50.90;;;;;;5050557;28;20036;-70
2023/05/28 12:36:48;;;;;;;6.18;2.63;;;25.70;50.50;;;;;;5050512;28;20035;-70
2023/05/28 12:39:14;;;;;;;8.90;3.00;;;25.60;51.20;;;;;;5051380;28;20053;-70
2023/05/28 12:41:40;;;;;;;5.85;2.63;;;25.40;50.40;;;;;;5050516;28;20111;-69